Ds Blue Wave — A8YK2 — position and weather

sailwx.info

Track history (hours):
 
Tides and Currents Weather Stations Pressure Air Temp Water Temp Dewpoint Dewpoint Depression Visibility Wind Speed Wind Dir Waves Ship Positions

Ds Blue Wave

Last reported at 2016-Aug-23 17:27 UTC. Time now 2016-Aug-24 08:26 UTC.
Position N 33°51' E 130°10'.

Length 129 m; draft 6.3 m.

Type: Cargo ship. MMSI: 636092200.

Date/timePositionNaut miles runAvg speedWind from/ knotsBaromVisibWave heightAir tempDewpointWater temp
2016-Aug-23 17:27N 33°51' E 130°10'24613.0
2016-Aug-22 22:33N 34°36' E 135°03'1110.8
2016-Aug-22 21:34N 34°39' E 135°16'2 1.8
2016-Aug-22 20:29N 34°41' E 135°15'0 0.0
2016-Aug-22 19:29N 34°41' E 135°15'0 0.0
2016-Aug-22 18:29N 34°41' E 135°15'0 0.0
2016-Aug-22 17:29N 34°41' E 135°15'0 0.0
2016-Aug-22 16:29N 34°41' E 135°15'0 0.0
2016-Aug-22 15:29N 34°41' E 135°15'0 0.0
2016-Aug-22 14:23N 34°41' E 135°15'0 0.0
2016-Aug-22 13:29N 34°41' E 135°15'0 0.0
2016-Aug-22 12:29N 34°41' E 135°15'0 0.0
2016-Aug-22 11:29N 34°41' E 135°15'0 0.0
2016-Aug-22 10:23N 34°41' E 135°15'0 0.0
2016-Aug-22 09:29N 34°41' E 135°15'0 0.0
2016-Aug-22 08:29N 34°41' E 135°15'0 0.4
2016-Aug-22 07:33N 34°41' E 135°15'7 7.0
2016-Aug-22 06:30N 34°39' E 135°24'0 0.0
2016-Aug-22 05:24N 34°39' E 135°24'0 0.0
2016-Aug-22 04:30N 34°39' E 135°24'0 0.0
2016-Aug-22 03:30N 34°39' E 135°24'0 0.0
2016-Aug-22 02:24N 34°39' E 135°24'0 0.0
2016-Aug-22 00:18N 34°39' E 135°24'0 0.0
2016-Aug-21 22:22N 34°39' E 135°24'4 4.3
2016-Aug-21 21:31N 34°36' E 135°21'7 6.9
2016-Aug-21 20:33N 34°35' E 135°13'7 7.1
2016-Aug-21 19:34N 34°35' E 135°04'  
2016-Aug-19 08:06N 31°20' E 121°41'610.1
2016-Aug-19 07:31N 31°23' E 121°35'0 0.1
2016-Aug-19 06:28N 31°23' E 121°35'0 0.0
2016-Aug-19 05:28N 31°23' E 121°35'0 0.0
2016-Aug-19 04:31N 31°23' E 121°35'0 0.0
2016-Aug-19 03:28N 31°23' E 121°35'0 0.0
2016-Aug-19 02:28N 31°23' E 121°35'0 0.0
2016-Aug-19 01:22N 31°23' E 121°35'0 0.0
2016-Aug-19 00:28N 31°23' E 121°35'0 0.0
2016-Aug-18 21:28N 31°23' E 121°35'0 0.0
2016-Aug-18 20:30N 31°23' E 121°35'0 0.0
2016-Aug-18 19:24N 31°23' E 121°35'0 0.0
2016-Aug-18 18:24N 31°23' E 121°35'0 0.0
2016-Aug-18 17:18N 31°23' E 121°35'0 0.2
2016-Aug-18 16:33N 31°23' E 121°35'  
2016-Aug-16 09:07N 34°36' E 134°56'915.7
2016-Aug-16 08:33N 34°36' E 135°07'8 8.1
2016-Aug-16 07:32N 34°41' E 135°15'0 0.0
2016-Aug-16 04:32N 34°41' E 135°15'0 0.0
2016-Aug-16 03:08N 34°41' E 135°15'0 0.0
2016-Aug-16 02:32N 34°41' E 135°15'0 0.0
2016-Aug-16 01:32N 34°41' E 135°15'0 0.0
2016-Aug-16 00:26N 34°41' E 135°15'0 0.5
2016-Aug-15 23:33N 34°40' E 135°15'3 3.1
2016-Aug-15 22:32N 34°37' E 135°14'0 0.0
2016-Aug-15 21:32N 34°37' E 135°14'0 0.0
2016-Aug-15 20:20N 34°37' E 135°14'0 0.0
2016-Aug-15 19:32N 34°37' E 135°14'0 0.0
2016-Aug-15 18:26N 34°37' E 135°14'0 0.0
2016-Aug-15 16:20N 34°37' E 135°14'0 0.1
2016-Aug-15 15:26N 34°37' E 135°14'0 0.1
2016-Aug-15 14:32N 34°37' E 135°14'0 0.1
2016-Aug-15 13:32N 34°37' E 135°14'0 0.0
2016-Aug-15 12:32N 34°37' E 135°14'0 0.0
2016-Aug-15 11:20N 34°37' E 135°14'0 0.0
2016-Aug-15 10:32N 34°37' E 135°14'0 0.0
2016-Aug-15 09:14N 34°37' E 135°14'0 0.2
2016-Aug-15 08:32N 34°37' E 135°14'8 8.2
2016-Aug-15 07:32N 34°39' E 135°24'0 0.2
2016-Aug-15 06:33N 34°39' E 135°24'0 0.0
2016-Aug-15 02:33N 34°39' E 135°24'0 0.0
2016-Aug-15 01:27N 34°39' E 135°24'0 0.0
2016-Aug-15 00:27N 34°39' E 135°24'0 0.1
2016-Aug-14 23:33N 34°39' E 135°24'0 0.0
2016-Aug-14 22:21N 34°39' E 135°24'3 3.4
2016-Aug-14 21:33N 34°37' E 135°22'8 8.4
2016-Aug-14 20:33N 34°35' E 135°12'  
Track history (hours):
 
Tides and Currents Weather Stations Pressure Air Temp Water Temp Dewpoint Dewpoint Depression Visibility Wind Speed Wind Dir Waves Ship Positions

Ds Blue Wave

Last reported at 2016-Aug-23 17:27 UTC. Time now 2016-Aug-24 08:26 UTC.
Position N 33°51' E 130°10'.

Length 129 m; draft 6.3 m.

Type: Cargo ship. MMSI: 636092200.

Date/timePositionNaut miles runAvg speedWind from/ knotsBaromVisibWave heightAir tempDewpointWater temp
2016-Aug-23 17:27N 33°51' E 130°10'24613.0
2016-Aug-22 22:33N 34°36' E 135°03'1110.8
2016-Aug-22 21:34N 34°39' E 135°16'2 1.8
2016-Aug-22 20:29N 34°41' E 135°15'0 0.0
2016-Aug-22 19:29N 34°41' E 135°15'0 0.0
2016-Aug-22 18:29N 34°41' E 135°15'0 0.0
2016-Aug-22 17:29N 34°41' E 135°15'0 0.0
2016-Aug-22 16:29N 34°41' E 135°15'0 0.0
2016-Aug-22 15:29N 34°41' E 135°15'0 0.0
2016-Aug-22 14:23N 34°41' E 135°15'0 0.0
2016-Aug-22 13:29N 34°41' E 135°15'0 0.0
2016-Aug-22 12:29N 34°41' E 135°15'0 0.0
2016-Aug-22 11:29N 34°41' E 135°15'0 0.0
2016-Aug-22 10:23N 34°41' E 135°15'0 0.0
2016-Aug-22 09:29N 34°41' E 135°15'0 0.0
2016-Aug-22 08:29N 34°41' E 135°15'0 0.4
2016-Aug-22 07:33N 34°41' E 135°15'7 7.0
2016-Aug-22 06:30N 34°39' E 135°24'0 0.0
2016-Aug-22 05:24N 34°39' E 135°24'0 0.0
2016-Aug-22 04:30N 34°39' E 135°24'0 0.0
2016-Aug-22 03:30N 34°39' E 135°24'0 0.0
2016-Aug-22 02:24N 34°39' E 135°24'0 0.0
2016-Aug-22 00:18N 34°39' E 135°24'0 0.0
2016-Aug-21 22:22N 34°39' E 135°24'4 4.3
2016-Aug-21 21:31N 34°36' E 135°21'7 6.9
2016-Aug-21 20:33N 34°35' E 135°13'7 7.1
2016-Aug-21 19:34N 34°35' E 135°04'  
2016-Aug-19 08:06N 31°20' E 121°41'610.1
2016-Aug-19 07:31N 31°23' E 121°35'0 0.1
2016-Aug-19 06:28N 31°23' E 121°35'0 0.0
2016-Aug-19 05:28N 31°23' E 121°35'0 0.0
2016-Aug-19 04:31N 31°23' E 121°35'0 0.0
2016-Aug-19 03:28N 31°23' E 121°35'0 0.0
2016-Aug-19 02:28N 31°23' E 121°35'0 0.0
2016-Aug-19 01:22N 31°23' E 121°35'0 0.0
2016-Aug-19 00:28N 31°23' E 121°35'0 0.0
2016-Aug-18 21:28N 31°23' E 121°35'0 0.0
2016-Aug-18 20:30N 31°23' E 121°35'0 0.0
2016-Aug-18 19:24N 31°23' E 121°35'0 0.0
2016-Aug-18 18:24N 31°23' E 121°35'0 0.0
2016-Aug-18 17:18N 31°23' E 121°35'0 0.2
2016-Aug-18 16:33N 31°23' E 121°35'  
2016-Aug-16 09:07N 34°36' E 134°56'915.7
2016-Aug-16 08:33N 34°36' E 135°07'8 8.1
2016-Aug-16 07:32N 34°41' E 135°15'0 0.0
2016-Aug-16 04:32N 34°41' E 135°15'0 0.0
2016-Aug-16 03:08N 34°41' E 135°15'0 0.0
2016-Aug-16 02:32N 34°41' E 135°15'0 0.0
2016-Aug-16 01:32N 34°41' E 135°15'0 0.0
2016-Aug-16 00:26N 34°41' E 135°15'0 0.5
2016-Aug-15 23:33N 34°40' E 135°15'3 3.1
2016-Aug-15 22:32N 34°37' E 135°14'0 0.0
2016-Aug-15 21:32N 34°37' E 135°14'0 0.0
2016-Aug-15 20:20N 34°37' E 135°14'0 0.0
2016-Aug-15 19:32N 34°37' E 135°14'0 0.0
2016-Aug-15 18:26N 34°37' E 135°14'0 0.0
2016-Aug-15 16:20N 34°37' E 135°14'0 0.1
2016-Aug-15 15:26N 34°37' E 135°14'0 0.1
2016-Aug-15 14:32N 34°37' E 135°14'0 0.1
2016-Aug-15 13:32N 34°37' E 135°14'0 0.0
2016-Aug-15 12:32N 34°37' E 135°14'0 0.0
2016-Aug-15 11:20N 34°37' E 135°14'0 0.0
2016-Aug-15 10:32N 34°37' E 135°14'0 0.0
2016-Aug-15 09:14N 34°37' E 135°14'0 0.2
2016-Aug-15 08:32N 34°37' E 135°14'8 8.2
2016-Aug-15 07:32N 34°39' E 135°24'0 0.2
2016-Aug-15 06:33N 34°39' E 135°24'0 0.0
2016-Aug-15 02:33N 34°39' E 135°24'0 0.0
2016-Aug-15 01:27N 34°39' E 135°24'0 0.0
2016-Aug-15 00:27N 34°39' E 135°24'0 0.1
2016-Aug-14 23:33N 34°39' E 135°24'0 0.0
2016-Aug-14 22:21N 34°39' E 135°24'3 3.4
2016-Aug-14 21:33N 34°37' E 135°22'8 8.4
2016-Aug-14 20:33N 34°35' E 135°12'  

Dump ship's entire track history